Fog From: 22-02-2019 10:59 Until: 13:59 warning for: Fog Level: Yellow info button


Nieuwrode (Holsbeek) more information Nieuwrode (Holsbeek)


Thunder radar more information blitzortung!


Rain radar more information rain snow radar



Weather Underground History page Text

Daily Summary for February 22, 2019 Units:  Metric    English   Both
« Previous Day
Next Day »
Daily Weekly Monthly Yearly Custom
  Current: High: Low: Average:
Temperature: -13.3 °C -17.8 °C -16.4 °C -15.8 °C
Dew Point: -14.2 °C -17.8 °C -17.7 °C -17 °C
Humidity: 93 % Humidity % 89 % 89 %
Wind Speed: 0 km/h 0 km/h 0 km/h 0.2 km/h
Wind Gust: 0 km/h 0 km/h - -
Wind:Calm - - West
Pressure: 1029 hPa 0 hPa 1027 hPa -
Precipitation: 0 mm      
Historical Graphs
 
 
Tabular Data for February 22, 2019
Time Temperature Dew Point Pressure Wind Wind Speed Wind Gust Humidity Rainfall Rate (Hourly)
-17.8 °C -17.8 °C 0 hPa Calm     Humidity % 0 mm
00:04 -15.7 °C -17.1 °C 1027 hPa Calm     89 % 0 mm
00:09 -15.8 °C -17.2 °C 1027.3 hPa West 0.6 km/h 1.9 km/h 89 % 0 mm
00:14 -15.8 °C -17.1 °C 1027.3 hPa Calm   1.9 km/h 90 % 0 mm
00:19 -15.8 °C -17.2 °C 1027.3 hPa Calm     89 % 0 mm
00:24 -15.9 °C -17.3 °C 1027.3 hPa West 0.5 km/h 1.9 km/h 89 % 0 mm
00:29 -15.9 °C -17.3 °C 1027.3 hPa West 0.5 km/h 1.9 km/h 89 % 0 mm
00:34 -16 °C -17.4 °C 1027.7 hPa West 0.2 km/h 1.9 km/h 89 % 0 mm
00:39 -16.1 °C -17.4 °C 1027.7 hPa Calm     89 % 0 mm
00:44 -16.1 °C -17.4 °C 1027.7 hPa Calm     89 % 0 mm
00:49 -16.1 °C -17.5 °C 1027.3 hPa West 0.3 km/h 1.9 km/h 89 % 0 mm
00:54 -16.1 °C -17.4 °C 1027.7 hPa West 1.1 km/h 1.9 km/h 89 % 0 mm
00:59 -15.9 °C -17.2 °C 1027.7 hPa Calm   1.9 km/h 90 % 0 mm
01:04 -15.9 °C -17.2 °C 1028 hPa Calm     90 % 0 mm
01:09 -16 °C -17.3 °C 1027.7 hPa Calm     90 % 0 mm
01:14 -16.1 °C -17.4 °C 1028 hPa Calm     90 % 0 mm
01:19 -16.1 °C -17.3 °C 1028 hPa Calm     90 % 0 mm
01:24 -16.1 °C -17.3 °C 1027.7 hPa Calm     90 % 0 mm
01:29 -16.1 °C -17.4 °C 1028 hPa West 0.2 km/h 1.9 km/h 90 % 0 mm
01:34 -16.2 °C -17.4 °C 1028 hPa Calm     90 % 0 mm
01:39 -16.2 °C -17.4 °C 1028.3 hPa Calm     90 % 0 mm
01:44 -16.2 °C -17.4 °C 1028.3 hPa Calm     90 % 0 mm
01:49 -16.1 °C -17.3 °C 1028.3 hPa Calm     90 % 0 mm
01:54 -16.1 °C -17.4 °C 1028.3 hPa Calm     90 % 0 mm
01:59 -16.2 °C -17.4 °C 1028.7 hPa Calm     90 % 0 mm
02:04 -16.2 °C -17.5 °C 1028.3 hPa Calm     90 % 0 mm
02:09 -16.3 °C -17.6 °C 1028.7 hPa Calm   1.9 km/h 90 % 0 mm
02:14 -16.4 °C -17.7 °C 1028.7 hPa Calm     90 % 0 mm
02:19 -16.4 °C -17.7 °C 1028.7 hPa Calm     90 % 0 mm
02:24 -16.4 °C -17.7 °C 1028.7 hPa Calm     90 % 0 mm
02:29 -16.3 °C -17.6 °C 1028.7 hPa West 1.9 km/h 1.9 km/h 90 % 0 mm
02:34 -16.4 °C -17.7 °C 1028.7 hPa West 1.6 km/h 1.9 km/h 90 % 0 mm
02:39 -16.4 °C -17.7 °C 1028.7 hPa Calm     90 % 0 mm
02:44 -16.4 °C -17.7 °C 1028.7 hPa West 1.3 km/h 1.9 km/h 90 % 0 mm
02:49 -16.4 °C -17.7 °C 1028.7 hPa Calm     90 % 0 mm
02:54 -16.4 °C -17.7 °C 1028.7 hPa Calm     90 % 0 mm
02:59 -16.3 °C -17.6 °C 1028.7 hPa Calm     90 % 0 mm
03:04 -16.3 °C -17.6 °C 1028.7 hPa Calm     90 % 0 mm
03:09 -16.3 °C -17.6 °C 1028.7 hPa Calm     90 % 0 mm
03:14 -16.2 °C -17.5 °C 1028.7 hPa Calm     90 % 0 mm
03:19 -16.1 °C -17.4 °C 1028.7 hPa Calm     90 % 0 mm
03:24 -16.1 °C -17.3 °C 1028.3 hPa Calm     90 % 0 mm
03:29 -16 °C -17.3 °C 1028.3 hPa Calm     90 % 0 mm
03:34 -15.9 °C -17.1 °C 1028.3 hPa Calm     91 % 0 mm
03:39 -15.9 °C -17.1 °C 1028.3 hPa Calm     91 % 0 mm
03:44 -15.7 °C -16.8 °C 1028.3 hPa Calm     91 % 0 mm
03:49 -15.5 °C -16.6 °C 1028.3 hPa Calm     91 % 0 mm
03:54 -15.4 °C -16.6 °C 1028 hPa Calm     91 % 0 mm
03:59 -15.2 °C -16.2 °C 1028 hPa Calm     92 % 0 mm
04:04 -15.1 °C -16.1 °C 1028.3 hPa Calm     92 % 0 mm
04:09 -14.3 °C -15.3 °C 1028.7 hPa Calm     92 % 0 mm
04:14 -14.1 °C -15.1 °C 1028.7 hPa Calm     92 % 0 mm
04:19 -14 °C -14.9 °C 1028.7 hPa Calm     93 % 0 mm
04:24 -13.9 °C -14.8 °C 1028.7 hPa Calm     93 % 0 mm
04:29 -13.8 °C -14.8 °C 1029 hPa Calm     92 % 0 mm
04:34 -13.6 °C -14.4 °C 1028.7 hPa Calm     93 % 0 mm
04:39 -13.4 °C -14.3 °C 1029 hPa Calm     93 % 0 mm
04:44 -13.3 °C -14.2 °C 1029 hPa Calm     93 % 0 mm
Weerstation Nieuwrode (Holsbeek)
Compliments of Weather Underground - 1.75 mb

Script developed by  Jim McMurry - jmcmurry@mwt.net Adapted for the template by  Wim van der Kuil - Leuven-Template.eu

You find our weather info also at:


Het Weer Aktueel

European Weather Network

Weather Underground

AWEKAS

HAMweather, WeatherForYou, PWS Weather

Equipment we use:


Weather-station
Davis VP2 Plus

Weather-program
Weather Display

Davis VP2 Plus

Weather Display